Time;durP1;ratioP1;P1;durP2;ratioP2;P2;SDS_P1;SDS_P2;PMS_P1;PMS_P2;Temp;Humidity;BMP_temperature;BMP_pressure;BME280_temperature;BME280_humidity;BME280_pressure;Samples;Min_cycle;Max_cycle;Signal;HPM_P1;HPM_P2
2022/08/27 00:02:03;;;;;;;4.50;0.50;;;16.90;99.90;;;;;;5110408;27;20489;-68
2022/08/27 00:04:30;;;;;;;7.38;0.40;;;16.90;99.90;;;;;;5109354;27;20124;-68
2022/08/27 00:06:56;;;;;;;4.30;0.50;;;16.90;99.90;;;;;;5109314;27;20039;-66
2022/08/27 00:09:22;;;;;;;5.72;0.52;;;16.90;99.90;;;;;;5109200;27;20464;-67
2022/08/27 00:11:47;;;;;;;4.88;0.40;;;16.90;99.90;;;;;;5108944;27;20547;-67
2022/08/27 00:14:13;;;;;;;4.28;0.40;;;16.90;99.90;;;;;;5110417;27;20035;-67
2022/08/27 00:16:40;;;;;;;3.75;0.40;;;16.90;99.90;;;;;;5110279;27;20163;-67
2022/08/27 00:19:06;;;;;;;5.80;0.60;;;16.80;99.90;;;;;;5109912;27;20046;-68
2022/08/27 00:21:31;;;;;;;6.90;0.55;;;16.80;99.90;;;;;;5092050;28;20526;-67
2022/08/27 00:23:58;;;;;;;3.63;0.40;;;16.80;99.90;;;;;;5092206;28;20043;-67
2022/08/27 00:26:24;;;;;;;3.85;0.40;;;16.80;99.90;;;;;;5108888;27;20222;-67
2022/08/27 00:28:50;;;;;;;4.10;0.40;;;16.80;99.90;;;;;;5109672;27;20983;-67
2022/08/27 00:31:16;;;;;;;8.77;0.50;;;16.70;99.90;;;;;;5109668;27;20219;-67
2022/08/27 00:33:42;;;;;;;6.72;0.52;;;16.70;99.90;;;;;;5080054;27;20610;-67
2022/08/27 00:36:09;;;;;;;4.88;0.43;;;16.70;99.90;;;;;;5079161;28;20676;-66
2022/08/27 00:38:37;;;;;;;6.97;0.50;;;16.70;99.90;;;;;;5109145;28;20782;-66
2022/08/27 00:41:06;;;;;;;6.03;0.40;;;16.60;99.90;;;;;;5108879;28;20035;-66
2022/08/27 00:43:52;;;;;;;5.65;0.40;;;16.60;99.90;;;;;;5109873;28;20316;-66
2022/08/27 00:46:38;;;;;;;4.20;0.60;;;16.50;99.90;;;;;;5110025;28;20100;-66
2022/08/27 00:49:10;;;;;;;7.35;0.50;;;16.50;99.90;;;;;;5110555;28;20713;-68
2022/08/27 00:51:37;;;;;;;9.23;0.77;;;16.50;99.90;;;;;;5108930;28;20070;-67
2022/08/27 00:54:04;;;;;;;4.40;0.60;;;16.50;99.90;;;;;;5109075;28;20043;-67
2022/08/27 00:56:38;;;;;;;7.72;0.55;;;16.50;99.90;;;;;;5110082;28;20043;-67
2022/08/27 00:59:04;;;;;;;6.55;0.77;;;16.60;99.90;;;;;;5109656;28;20531;-67
2022/08/27 01:01:32;;;;;;;7.30;0.70;;;16.70;99.90;;;;;;5109821;28;20036;-67
2022/08/27 01:04:02;;;;;;;9.60;0.85;;;16.80;99.90;;;;;;5109636;28;20497;-67
2022/08/27 01:06:32;;;;;;;6.47;0.70;;;16.80;99.90;;;;;;5092050;28;20039;-67
2022/08/27 01:09:04;;;;;;;8.80;0.60;;;16.80;99.90;;;;;;5108861;28;20047;-68
2022/08/27 01:11:30;;;;;;;8.07;0.88;;;16.80;99.90;;;;;;5109156;28;20132;-66
2022/08/27 01:13:56;;;;;;;6.47;0.85;;;16.80;99.90;;;;;;5109588;28;20069;-67
2022/08/27 01:16:27;;;;;;;9.20;0.88;;;16.90;99.90;;;;;;5108556;28;20043;-68
2022/08/27 01:18:54;;;;;;;10.00;0.70;;;16.90;99.90;;;;;;5108707;28;20375;-67
2022/08/27 01:21:34;;;;;;;7.18;0.80;;;17.00;99.90;;;;;;5110077;27;20267;-66
2022/08/27 01:24:04;;;;;;;9.52;0.57;;;17.00;99.90;;;;;;5110275;28;20034;-67
2022/08/27 01:26:30;;;;;;;6.22;0.68;;;17.00;99.90;;;;;;5108775;28;20049;-68
2022/08/27 01:28:57;;;;;;;8.45;0.60;;;17.00;99.90;;;;;;5108998;28;20268;-67
2022/08/27 01:31:23;;;;;;;4.05;0.52;;;17.00;99.90;;;;;;5109184;28;20052;-67
2022/08/27 01:34:00;;;;;;;7.43;0.80;;;17.00;99.90;;;;;;5091584;28;20501;-67
2022/08/27 01:36:27;;;;;;;10.52;0.90;;;17.00;99.90;;;;;;5108871;28;20107;-67
2022/08/27 01:38:53;;;;;;;4.70;0.70;;;17.00;99.90;;;;;;5100385;28;20177;-67
2022/08/27 01:41:19;;;;;;;7.90;0.90;;;17.00;99.90;;;;;;5108285;27;20040;-67
2022/08/27 01:43:45;;;;;;;7.68;0.80;;;16.90;99.90;;;;;;5113252;27;20691;-67
2022/08/27 01:46:11;;;;;;;6.50;0.70;;;16.80;99.90;;;;;;5112858;27;20035;-67
2022/08/27 01:48:37;;;;;;;8.05;0.60;;;16.80;99.90;;;;;;5112678;27;20154;-67
2022/08/27 01:51:03;;;;;;;9.88;0.90;;;16.70;99.90;;;;;;5112657;27;20312;-68
2022/08/27 01:53:29;;;;;;;11.07;0.88;;;16.60;99.90;;;;;;5112057;27;20462;-68
2022/08/27 01:55:55;;;;;;;5.35;0.73;;;16.60;99.90;;;;;;5111498;27;20043;-68
2022/08/27 01:58:26;;;;;;;7.70;0.77;;;16.50;99.90;;;;;;5112945;27;20043;-67
2022/08/27 02:00:56;;;;;;;6.93;0.73;;;16.40;99.90;;;;;;5112414;27;20253;-67
2022/08/27 02:03:22;;;;;;;8.82;0.90;;;16.40;99.90;;;;;;5112299;27;20031;-67
2022/08/27 02:05:48;;;;;;;9.82;1.02;;;16.30;99.90;;;;;;5112313;27;20354;-68
2022/08/27 02:08:16;;;;;;;6.97;0.73;;;16.20;99.90;;;;;;5114042;27;20296;-67
2022/08/27 02:10:46;;;;;;;9.15;0.80;;;16.20;99.90;;;;;;5115548;27;20052;-67
2022/08/27 02:13:12;;;;;;;7.93;1.10;;;16.30;99.90;;;;;;5115872;27;20043;-67
2022/08/27 02:15:39;;;;;;;7.75;0.80;;;16.40;99.90;;;;;;5115673;27;20038;-67
2022/08/27 02:18:07;;;;;;;6.35;0.68;;;16.50;99.90;;;;;;5115790;27;20508;-67
2022/08/27 02:20:33;;;;;;;8.40;0.75;;;16.80;99.90;;;;;;5097088;27;20228;-68
2022/08/27 02:22:59;;;;;;;5.53;0.60;;;16.90;99.90;;;;;;5097519;27;20346;-67
2022/08/27 02:25:27;;;;;;;5.95;0.55;;;17.10;99.90;;;;;;5114056;27;20516;-67
2022/08/27 02:27:53;;;;;;;5.80;0.70;;;17.20;99.90;;;;;;5115276;27;20077;-67
2022/08/27 02:30:21;;;;;;;6.38;0.52;;;17.40;99.90;;;;;;5097388;27;20046;-68
2022/08/27 02:32:48;;;;;;;6.60;0.55;;;17.50;99.90;;;;;;5086151;27;20046;-67
2022/08/27 02:35:15;;;;;;;6.88;0.52;;;17.60;99.90;;;;;;5114532;27;20053;-68
2022/08/27 02:37:41;;;;;;;4.45;0.38;;;17.70;99.90;;;;;;5114409;27;20354;-67
2022/08/27 02:40:08;;;;;;;5.40;0.40;;;17.70;99.90;;;;;;5095954;27;20047;-67
2022/08/27 02:42:34;;;;;;;5.15;0.40;;;17.70;99.90;;;;;;5114789;27;20576;-68
2022/08/27 02:45:00;;;;;;;5.50;0.77;;;17.70;99.90;;;;;;5114494;27;20729;-67
2022/08/27 02:47:25;;;;;;;7.90;0.63;;;17.70;99.90;;;;;;5097618;27;20034;-68
2022/08/27 02:49:51;;;;;;;6.50;0.60;;;17.70;99.90;;;;;;5114146;27;20064;-68
2022/08/27 02:52:17;;;;;;;6.70;0.47;;;17.70;99.90;;;;;;5114679;27;20039;-68
2022/08/27 02:54:43;;;;;;;4.95;0.50;;;17.70;99.90;;;;;;5094775;27;20094;-67
2022/08/27 02:57:09;;;;;;;3.90;0.63;;;17.60;99.90;;;;;;5096876;27;20034;-68
2022/08/27 02:59:35;;;;;;;3.78;0.60;;;17.60;99.90;;;;;;5063343;27;20091;-67
2022/08/27 03:02:01;;;;;;;4.00;0.65;;;17.60;99.90;;;;;;5098422;27;20044;-68
2022/08/27 03:04:28;;;;;;;4.57;0.60;;;17.60;99.90;;;;;;5113770;27;20488;-67
2022/08/27 03:06:55;;;;;;;9.60;0.80;;;17.50;99.90;;;;;;5109641;27;20053;-67
2022/08/27 03:09:20;;;;;;;4.90;0.60;;;17.40;99.90;;;;;;5113041;27;20308;-67
2022/08/27 03:11:46;;;;;;;3.45;0.40;;;17.40;99.90;;;;;;5112988;27;20031;-67
2022/08/27 03:14:13;;;;;;;4.70;0.70;;;17.30;99.90;;;;;;5097163;27;20046;-67
2022/08/27 03:16:39;;;;;;;5.75;0.50;;;17.20;99.90;;;;;;5114131;27;20329;-67
2022/08/27 03:19:06;;;;;;;6.18;0.30;;;17.20;99.90;;;;;;5096948;27;20034;-67
2022/08/27 03:21:33;;;;;;;3.72;0.47;;;17.20;99.90;;;;;;5113809;27;20041;-68
2022/08/27 03:24:00;;;;;;;5.57;0.60;;;17.10;99.90;;;;;;5096387;27;20081;-67
2022/08/27 03:26:27;;;;;;;4.88;0.50;;;17.00;99.90;;;;;;5129703;27;20510;-67
2022/08/27 03:28:53;;;;;;;5.88;0.68;;;16.90;99.90;;;;;;5096602;27;20106;-67
2022/08/27 03:31:25;;;;;;;4.43;0.50;;;16.90;99.90;;;;;;5096994;27;20154;-67
2022/08/27 03:34:00;;;;;;;5.25;0.43;;;16.80;99.90;;;;;;5095697;27;20038;-67
2022/08/27 03:36:28;;;;;;;5.80;0.40;;;16.70;99.90;;;;;;5113281;27;20533;-67
2022/08/27 03:38:54;;;;;;;5.75;0.82;;;16.70;99.90;;;;;;5112567;27;20039;-67
2022/08/27 03:41:21;;;;;;;6.57;0.80;;;16.80;99.90;;;;;;5112445;27;20594;-68
2022/08/27 03:43:47;;;;;;;6.00;0.70;;;16.80;99.90;;;;;;5095610;27;20030;-66
2022/08/27 03:46:12;;;;;;;2.85;0.57;;;16.80;99.90;;;;;;5112380;27;20046;-68
2022/08/27 03:48:38;;;;;;;6.05;0.80;;;16.80;99.90;;;;;;5112555;27;20035;-67
2022/08/27 03:51:10;;;;;;;6.47;0.40;;;16.70;99.90;;;;;;5112861;27;20451;-68
2022/08/27 03:53:39;;;;;;;5.53;0.50;;;16.60;99.90;;;;;;5096225;27;20099;-68
2022/08/27 03:56:07;;;;;;;6.03;0.70;;;16.50;99.90;;;;;;5095591;27;20126;-68
2022/08/27 03:58:34;;;;;;;7.43;0.60;;;16.40;99.90;;;;;;5094812;27;20050;-67
2022/08/27 04:01:00;;;;;;;4.07;0.80;;;16.40;99.90;;;;;;5112131;27;20552;-68
2022/08/27 04:03:26;;;;;;;5.93;0.70;;;16.40;99.90;;;;;;5113044;27;20042;-67
2022/08/27 04:05:56;;;;;;;5.82;0.60;;;16.40;99.90;;;;;;5113243;27;20103;-68
2022/08/27 04:08:23;;;;;;;7.80;1.00;;;16.40;99.90;;;;;;5111876;27;20050;-68
2022/08/27 04:10:50;;;;;;;7.57;0.60;;;16.40;99.90;;;;;;5095314;27;20408;-68
2022/08/27 04:13:17;;;;;;;5.90;0.63;;;16.40;99.90;;;;;;5095700;27;20102;-68
2022/08/27 04:15:44;;;;;;;5.82;0.70;;;16.40;99.90;;;;;;5112329;27;20543;-68
2022/08/27 04:18:11;;;;;;;8.45;0.82;;;16.40;99.90;;;;;;5112444;27;20042;-69
2022/08/27 04:20:37;;;;;;;5.82;0.50;;;16.40;99.90;;;;;;5131825;27;20072;-68
2022/08/27 04:23:04;;;;;;;7.20;0.80;;;16.40;99.90;;;;;;5094935;27;20609;-69
2022/08/27 04:25:30;;;;;;;8.57;0.80;;;16.40;99.90;;;;;;5094426;27;20225;-68
2022/08/27 04:27:56;;;;;;;5.72;0.60;;;16.50;99.90;;;;;;5118579;27;20050;-69
2022/08/27 04:30:22;;;;;;;5.45;0.80;;;16.50;99.90;;;;;;5113151;27;20435;-68
2022/08/27 04:32:49;;;;;;;6.10;0.70;;;16.50;99.90;;;;;;5112636;27;20126;-67
2022/08/27 04:35:15;;;;;;;8.30;0.80;;;16.50;99.90;;;;;;5130981;27;20064;-67
2022/08/27 04:37:42;;;;;;;5.85;0.82;;;16.50;99.90;;;;;;5094016;27;20119;-68
2022/08/27 04:40:08;;;;;;;6.75;0.65;;;16.50;99.90;;;;;;5095280;27;20839;-68
2022/08/27 04:42:34;;;;;;;4.82;0.50;;;16.50;99.90;;;;;;5113277;27;20526;-68
2022/08/27 04:44:59;;;;;;;4.65;0.52;;;16.50;99.90;;;;;;5112238;27;20342;-69
2022/08/27 04:47:25;;;;;;;3.78;0.60;;;16.50;99.90;;;;;;5112577;27;20109;-67
2022/08/27 04:49:51;;;;;;;8.00;0.90;;;16.40;99.90;;;;;;5096233;27;20049;-67
2022/08/27 04:52:16;;;;;;;4.13;0.82;;;16.30;99.90;;;;;;5113501;27;20293;-68
2022/08/27 04:54:42;;;;;;;5.63;0.40;;;16.40;99.90;;;;;;5095973;27;20046;-68
2022/08/27 04:57:08;;;;;;;4.63;0.60;;;16.40;99.90;;;;;;5112447;27;20049;-68
2022/08/27 04:59:35;;;;;;;4.82;0.70;;;16.40;99.90;;;;;;5114902;27;20046;-69
2022/08/27 05:02:02;;;;;;;5.78;0.52;;;16.40;99.90;;;;;;5095047;27;20307;-69
2022/08/27 05:04:29;;;;;;;6.45;0.70;;;16.40;99.90;;;;;;5112399;27;20396;-69
2022/08/27 05:06:55;;;;;;;4.90;0.57;;;16.50;99.90;;;;;;5112538;27;20043;-68
2022/08/27 05:09:21;;;;;;;7.85;0.60;;;16.50;99.90;;;;;;5110969;27;20051;-69
2022/08/27 05:11:47;;;;;;;4.18;0.50;;;16.60;99.90;;;;;;5111141;27;20046;-69
2022/08/27 05:14:14;;;;;;;7.30;0.70;;;16.70;99.90;;;;;;5111177;27;20343;-69
2022/08/27 05:16:41;;;;;;;6.43;0.65;;;16.80;99.90;;;;;;5112156;27;20434;-68
2022/08/27 05:19:09;;;;;;;6.05;0.60;;;16.90;99.90;;;;;;5115093;27;20043;-69
2022/08/27 05:21:38;;;;;;;6.35;0.82;;;17.10;99.90;;;;;;5132579;27;20043;-69
2022/08/27 05:24:06;;;;;;;6.85;0.50;;;17.30;99.90;;;;;;5096642;27;20038;-69
2022/08/27 05:26:33;;;;;;;5.07;0.57;;;17.40;99.90;;;;;;5083435;27;20034;-68
2022/08/27 05:29:00;;;;;;;5.88;0.80;;;17.60;99.90;;;;;;5096880;27;20140;-69
2022/08/27 05:31:27;;;;;;;4.28;0.52;;;17.60;99.90;;;;;;5114357;27;20313;-69
2022/08/27 05:33:55;;;;;;;2.63;0.35;;;17.70;99.90;;;;;;5114764;27;20595;-69
2022/08/27 05:36:29;;;;;;;4.35;0.52;;;17.80;99.90;;;;;;5115178;27;20078;-67
2022/08/27 05:38:56;;;;;;;6.30;0.60;;;17.90;99.90;;;;;;5133525;27;20510;-66
2022/08/27 05:41:26;;;;;;;6.63;0.77;;;18.00;99.90;;;;;;5114144;27;20034;-67
2022/08/27 05:43:53;;;;;;;5.85;0.43;;;18.00;99.90;;;;;;5114799;27;20555;-68
2022/08/27 05:46:21;;;;;;;6.35;0.73;;;18.10;99.90;;;;;;5132756;27;20473;-68
2022/08/27 05:48:48;;;;;;;4.97;0.50;;;18.40;99.90;;;;;;5096256;27;20046;-68
2022/08/27 05:51:19;;;;;;;4.43;0.70;;;18.70;99.90;;;;;;5114559;27;20050;-68
2022/08/27 05:53:45;;;;;;;5.30;0.60;;;18.80;99.90;;;;;;5096145;27;20070;-68
2022/08/27 05:56:20;;;;;;;6.57;0.60;;;18.90;99.90;;;;;;5096394;27;20122;-68
2022/08/27 06:01:34;;;;;;;8.73;0.82;;;19.00;99.90;;;;;;5113277;27;20823;-69
2022/08/27 06:04:01;;;;;;;6.97;0.85;;;19.00;99.90;;;;;;5130119;27;20289;-68
2022/08/27 06:06:27;;;;;;;7.38;0.68;;;19.00;99.90;;;;;;5115136;27;20269;-68
2022/08/27 06:08:53;;;;;;;3.67;0.50;;;19.20;99.90;;;;;;5057849;27;1099109;-69
2022/08/27 06:11:20;;;;;;;5.35;0.40;;;19.70;99.90;;;;;;5134075;27;20713;-69
2022/08/27 06:13:47;;;;;;;4.38;0.40;;;20.20;99.90;;;;;;5114593;27;20129;-69
2022/08/27 06:16:16;;;;;;;6.10;0.47;;;20.50;99.90;;;;;;5114537;27;20088;-68
2022/08/27 06:18:44;;;;;;;7.05;0.60;;;20.50;99.90;;;;;;5115358;27;20270;-69
2022/08/27 06:21:11;;;;;;;6.07;0.60;;;20.30;99.90;;;;;;5097954;27;20357;-68
2022/08/27 06:23:38;;;;;;;5.93;0.93;;;19.90;99.90;;;;;;5114729;27;20038;-69
2022/08/27 06:26:09;;;;;;;4.95;0.50;;;19.50;99.90;;;;;;5113812;27;20038;-69
2022/08/27 06:28:35;;;;;;;8.45;0.63;;;19.30;99.90;;;;;;5113402;27;20034;-69
2022/08/27 06:31:14;;;;;;;8.55;0.70;;;19.00;99.90;;;;;;5115898;27;20539;-67
2022/08/27 06:33:41;;;;;;;7.72;0.60;;;18.90;99.90;;;;;;5114269;27;20035;-68
2022/08/27 06:36:09;;;;;;;7.95;0.57;;;18.80;99.90;;;;;;5117146;27;20050;-68
2022/08/27 06:38:36;;;;;;;9.95;0.60;;;18.70;99.90;;;;;;5099221;27;20482;-68
2022/08/27 06:41:07;;;;;;;6.43;0.80;;;18.70;99.90;;;;;;5098671;27;20455;-68
2022/08/27 06:43:35;;;;;;;8.20;0.70;;;18.60;99.90;;;;;;5098801;27;20042;-68
2022/08/27 06:46:05;;;;;;;6.85;0.60;;;18.70;99.90;;;;;;5115199;27;20625;-67
2022/08/27 06:48:31;;;;;;;7.40;0.70;;;18.60;99.90;;;;;;5097899;27;20066;-66
2022/08/27 06:50:57;;;;;;;5.85;0.50;;;18.60;99.90;;;;;;5115950;27;20216;-67
2022/08/27 06:53:23;;;;;;;6.05;0.55;;;18.70;99.90;;;;;;5114020;27;20038;-68
2022/08/27 06:55:49;;;;;;;7.43;0.82;;;18.70;99.90;;;;;;5112164;27;20038;-67
2022/08/27 06:58:16;;;;;;;7.00;0.50;;;18.70;99.90;;;;;;5084593;27;20042;-67
2022/08/27 07:00:43;;;;;;;9.45;0.68;;;18.80;99.90;;;;;;5118431;27;20400;-67
2022/08/27 07:03:09;;;;;;;6.28;0.50;;;18.80;99.90;;;;;;5097350;27;20124;-67
2022/08/27 07:05:37;;;;;;;9.60;0.50;;;18.90;99.90;;;;;;5097399;27;20500;-66
2022/08/27 07:08:04;;;;;;;7.53;0.73;;;19.00;99.90;;;;;;5115687;27;20538;-67
2022/08/27 07:10:31;;;;;;;6.20;0.60;;;19.00;99.90;;;;;;5134587;27;20224;-67
2022/08/27 07:12:57;;;;;;;8.30;0.90;;;19.00;99.90;;;;;;5114256;27;20045;-67
2022/08/27 07:15:23;;;;;;;7.57;0.73;;;19.00;99.90;;;;;;5096182;27;20042;-67
2022/08/27 07:17:50;;;;;;;4.57;0.57;;;18.90;99.90;;;;;;5113184;27;20043;-67
2022/08/27 07:20:17;;;;;;;11.23;1.15;;;18.90;99.90;;;;;;5111822;27;20046;-66
2022/08/27 07:22:44;;;;;;;7.53;0.50;;;19.00;99.90;;;;;;5096428;27;20035;-67
2022/08/27 07:25:14;;;;;;;5.72;0.80;;;19.00;99.90;;;;;;5092643;27;20034;-66
2022/08/27 07:27:40;;;;;;;7.80;0.70;;;19.10;99.90;;;;;;5118209;27;20600;-67
2022/08/27 07:30:10;;;;;;;10.23;0.80;;;19.40;99.90;;;;;;5111886;27;20043;-68
2022/08/27 07:32:37;;;;;;;7.95;0.77;;;20.00;99.90;;;;;;5093623;27;20053;-67
2022/08/27 07:35:03;;;;;;;9.95;0.80;;;20.40;99.90;;;;;;5109705;27;20140;-67
2022/08/27 07:37:29;;;;;;;5.15;0.50;;;20.40;99.90;;;;;;5112950;27;20538;-67
2022/08/27 07:39:54;;;;;;;5.55;0.82;;;20.20;99.90;;;;;;5111711;27;20226;-67
2022/08/27 07:45:05;;;;;;;9.80;0.90;;;19.90;99.90;;;;;;5115449;27;20123;-67
2022/08/27 07:47:31;;;;;;;7.80;0.70;;;19.70;99.90;;;;;;5115628;27;20038;-67
2022/08/27 07:49:57;;;;;;;9.13;0.75;;;19.70;99.90;;;;;;5101174;27;20050;-67
2022/08/27 07:52:23;;;;;;;6.78;0.68;;;19.60;99.90;;;;;;5099631;27;20116;-67
2022/08/27 07:54:50;;;;;;;7.55;0.40;;;19.60;99.90;;;;;;5097095;27;20106;-68
2022/08/27 07:57:16;;;;;;;7.15;0.57;;;19.70;99.90;;;;;;5114756;27;20311;-67
2022/08/27 07:59:42;;;;;;;6.10;0.57;;;19.80;99.90;;;;;;5114463;27;20439;-67
2022/08/27 08:02:08;;;;;;;5.57;0.70;;;19.90;99.90;;;;;;5114758;27;20042;-68
2022/08/27 08:04:34;;;;;;;3.45;0.40;;;19.90;99.90;;;;;;5114678;27;20504;-67
2022/08/27 08:07:00;;;;;;;8.05;0.50;;;20.00;99.90;;;;;;5114613;27;20094;-67
2022/08/27 08:09:26;;;;;;;7.18;0.70;;;20.00;99.90;;;;;;5114099;27;20084;-66
2022/08/27 08:11:52;;;;;;;7.95;0.57;;;20.20;99.90;;;;;;5114756;27;20858;-68
2022/08/27 08:14:19;;;;;;;3.15;0.50;;;20.20;99.90;;;;;;5096272;27;20085;-67
2022/08/27 08:16:45;;;;;;;5.95;0.50;;;20.40;99.90;;;;;;5097429;27;20049;-67
2022/08/27 08:19:11;;;;;;;6.35;0.55;;;20.50;99.90;;;;;;5097603;27;20528;-67
2022/08/27 08:21:37;;;;;;;8.93;0.65;;;20.60;99.90;;;;;;5097207;27;20520;-66
2022/08/27 08:24:04;;;;;;;7.50;0.68;;;20.50;99.90;;;;;;5097114;27;20070;-67
2022/08/27 08:26:30;;;;;;;6.55;0.63;;;20.50;99.90;;;;;;5114270;27;20523;-67
2022/08/27 08:28:56;;;;;;;4.88;0.70;;;20.30;99.90;;;;;;5096833;27;20455;-67
2022/08/27 08:31:26;;;;;;;6.90;0.60;;;20.20;99.90;;;;;;5113998;27;20047;-68
2022/08/27 08:33:52;;;;;;;7.82;0.50;;;20.10;99.90;;;;;;5133274;27;20054;-68
2022/08/27 08:36:18;;;;;;;10.57;0.57;;;20.00;99.90;;;;;;5063196;27;20312;-68
2022/08/27 08:38:45;;;;;;;4.63;0.57;;;20.10;99.90;;;;;;5113774;27;20754;-67
2022/08/27 08:41:42;;;;;;;8.05;0.80;;;20.10;99.90;;;;;;5113928;27;20450;-68
2022/08/27 08:44:29;;;;;;;7.60;0.60;;;20.00;99.90;;;;;;5096819;27;20099;-68
2022/08/27 08:47:09;;;;;;;10.30;0.93;;;20.10;99.90;;;;;;5114530;27;20059;-68
2022/08/27 08:49:40;;;;;;;7.25;0.60;;;20.10;99.90;;;;;;5114488;27;20232;-69
2022/08/27 08:52:33;;;;;;;6.75;0.40;;;20.00;99.90;;;;;;5115651;27;20357;-69
2022/08/27 08:55:12;;;;;;;8.35;0.90;;;20.00;99.90;;;;;;5118069;27;20150;-69
2022/08/27 08:58:26;;;;;;;10.75;1.23;;;20.00;99.90;;;;;;5118383;27;20042;-68
2022/08/27 09:00:57;;;;;;;5.40;0.52;;;20.10;99.90;;;;;;5112690;27;20603;-68
2022/08/27 09:03:24;;;;;;;7.70;0.60;;;20.00;99.90;;;;;;5136700;27;20437;-69
2022/08/27 09:06:01;;;;;;;9.63;0.70;;;20.30;99.90;;;;;;5118274;27;20070;-69
2022/08/27 09:08:35;;;;;;;11.02;0.60;;;20.50;99.90;;;;;;5117837;27;20179;-68
2022/08/27 09:11:38;;;;;;;7.32;0.82;;;20.50;99.90;;;;;;5118652;27;20430;-68
2022/08/27 09:14:17;;;;;;;10.70;0.75;;;20.50;99.90;;;;;;5118032;27;20054;-68
2022/08/27 09:16:42;;;;;;;6.53;0.52;;;20.40;99.90;;;;;;5137633;27;20061;-68
2022/08/27 09:19:08;;;;;;;6.95;0.70;;;20.40;99.90;;;;;;5101151;27;20343;-69
2022/08/27 09:21:47;;;;;;;10.48;0.77;;;20.30;99.90;;;;;;5118008;27;20508;-68
2022/08/27 09:24:28;;;;;;;7.60;0.68;;;20.30;99.90;;;;;;5100574;27;20337;-69
2022/08/27 09:26:53;;;;;;;6.78;0.60;;;20.30;99.90;;;;;;5101194;27;20102;-68
2022/08/27 09:29:19;;;;;;;5.22;0.60;;;20.30;99.90;;;;;;5117679;27;20046;-68
2022/08/27 09:32:05;;;;;;;6.28;0.50;;;20.20;99.90;;;;;;5117797;27;20605;-69
2022/08/27 09:34:37;;;;;;;6.57;0.77;;;20.30;99.90;;;;;;5117520;27;20055;-69
2022/08/27 09:37:11;;;;;;;4.82;0.40;;;20.40;99.90;;;;;;5117649;27;20031;-69
2022/08/27 09:39:47;;;;;;;3.85;0.50;;;20.40;99.90;;;;;;5116411;27;20046;-67
2022/08/27 09:42:41;;;;;;;8.30;0.47;;;20.40;99.90;;;;;;5100832;27;20061;-69
2022/08/27 09:45:13;;;;;;;7.47;0.55;;;20.70;99.90;;;;;;5117403;27;20046;-68
2022/08/27 09:47:51;;;;;;;5.45;0.50;;;21.70;99.90;;;;;;5117349;27;20039;-69
2022/08/27 09:50:20;;;;;;;6.63;0.50;;;22.40;99.90;;;;;;5099847;27;20070;-68
2022/08/27 09:52:57;;;;;;;6.45;0.60;;;23.00;99.90;;;;;;5117688;27;20156;-68
2022/08/27 09:55:49;;;;;;;8.70;0.60;;;23.00;99.90;;;;;;5136180;27;20047;-68
2022/08/27 09:58:23;;;;;;;4.90;0.65;;;22.70;99.90;;;;;;5117118;27;20119;-68
2022/08/27 10:00:59;;;;;;;4.40;0.50;;;22.50;99.90;;;;;;5099971;27;20042;-68
2022/08/27 10:03:26;;;;;;;4.70;0.50;;;22.00;99.90;;;;;;5116634;27;20064;-68
2022/08/27 10:05:53;;;;;;;6.65;0.40;;;21.80;99.90;;;;;;5116342;27;20783;-68
2022/08/27 10:08:18;;;;;;;5.10;0.30;;;22.60;99.90;;;;;;5100907;27;20052;-68
2022/08/27 10:11:05;;;;;;;6.20;0.50;;;23.50;99.90;;;;;;5135866;27;20235;-68
2022/08/27 10:14:19;;;;;;;6.03;0.68;;;24.20;99.90;;;;;;5099828;27;20095;-69
2022/08/27 10:17:15;;;;;;;8.15;0.95;;;23.90;99.90;;;;;;5063860;27;20061;-68
2022/08/27 10:19:54;;;;;;;7.38;0.52;;;23.50;99.90;;;;;;5116943;27;20076;-69
2022/08/27 10:22:34;;;;;;;5.07;0.50;;;24.00;99.90;;;;;;5099610;27;20038;-70
2022/08/27 10:25:06;;;;;;;6.85;0.80;;;24.50;99.90;;;;;;5116955;27;20439;-69
2022/08/27 10:27:31;;;;;;;4.67;0.60;;;24.50;99.90;;;;;;5117188;27;20304;-70
2022/08/27 10:30:12;;;;;;;4.85;0.45;;;24.30;99.90;;;;;;5116348;27;20054;-70
2022/08/27 10:32:56;;;;;;;5.07;0.50;;;24.70;99.90;;;;;;5116864;27;20439;-68
2022/08/27 10:35:31;;;;;;;4.60;0.60;;;24.70;99.90;;;;;;5116563;27;20050;-69
2022/08/27 10:37:59;;;;;;;6.30;0.75;;;24.70;99.90;;;;;;5116510;27;20043;-69
2022/08/27 10:40:44;;;;;;;6.93;0.60;;;24.60;99.90;;;;;;5116411;27;20047;-69
2022/08/27 10:43:48;;;;;;;4.22;0.40;;;24.40;99.90;;;;;;5117123;27;20245;-69
2022/08/27 10:46:32;;;;;;;5.97;0.50;;;24.00;99.90;;;;;;5116017;27;20086;-67
2022/08/27 10:49:31;;;;;;;4.78;0.35;;;23.60;99.90;;;;;;5116208;27;20122;-68
2022/08/27 10:52:12;;;;;;;7.40;0.40;;;23.00;99.90;;;;;;5099243;27;20322;-69
2022/08/27 10:54:43;;;;;;;3.55;0.38;;;23.00;99.90;;;;;;5099103;27;20042;-69
2022/08/27 10:58:02;;;;;;;6.50;0.40;;;23.90;99.90;;;;;;5098290;27;20114;-69
2022/08/27 11:00:42;;;;;;;5.80;0.40;;;25.00;99.90;;;;;;5063707;27;20047;-66
2022/08/27 11:03:14;;;;;;;6.13;0.40;;;25.80;99.90;;;;;;5114918;27;20073;-68
2022/08/27 11:05:46;;;;;;;4.10;0.60;;;26.20;97.90;;;;;;5114211;27;20058;-69
2022/08/27 11:08:18;;;;;;;;;;;26.50;95.70;;;;;;5114098;27;20288;-68
2022/08/27 11:10:55;;;;;;;6.70;0.60;;;26.00;96.30;;;;;;5133942;27;19923;-70
2022/08/27 11:13:27;;;;;;;6.82;0.60;;;25.90;95.50;;;;;;5099030;27;20215;-67
2022/08/27 11:15:55;;;;;;;5.45;0.30;;;25.80;95.50;;;;;;5105951;27;20046;-65
2022/08/27 11:18:26;;;;;;;4.78;0.50;;;25.50;96.00;;;;;;5113785;27;20449;-67
2022/08/27 11:21:04;;;;;;;3.83;0.30;;;25.50;96.30;;;;;;5096168;27;20039;-66
2022/08/27 11:23:42;;;;;;;5.72;0.50;;;24.80;98.30;;;;;;5113872;27;20042;-67
2022/08/27 11:26:08;;;;;;;11.55;0.93;;;24.60;98.40;;;;;;5114147;27;20051;-67
2022/08/27 11:28:40;;;;;;;6.13;0.57;;;25.10;99.00;;;;;;5114144;27;20572;-67
2022/08/27 11:31:28;;;;;;;3.38;0.30;;;25.30;99.70;;;;;;5106667;27;20057;-68
2022/08/27 11:34:12;;;;;;;5.95;0.43;;;24.90;99.90;;;;;;5131945;27;20042;-68
2022/08/27 11:37:02;;;;;;;5.90;0.40;;;24.40;99.90;;;;;;5113456;27;20041;-67
2022/08/27 11:39:50;;;;;;;4.53;0.30;;;24.20;99.90;;;;;;5132114;27;20614;-68
2022/08/27 11:42:35;;;;;;;6.78;0.40;;;24.30;99.90;;;;;;5112999;27;20505;-67
2022/08/27 11:45:09;;;;;;;5.32;0.40;;;25.20;99.90;;;;;;5130885;27;20083;-67
2022/08/27 11:47:35;;;;;;;3.45;0.30;;;25.10;98.10;;;;;;5114321;27;20041;-67
2022/08/27 11:50:07;;;;;;;6.38;0.40;;;25.20;99.80;;;;;;5112911;27;20444;-67
2022/08/27 11:52:52;;;;;;;5.87;0.53;;;25.70;98.50;;;;;;5112642;27;20289;-69
2022/08/27 11:55:20;;;;;;;4.00;0.40;;;26.20;95.90;;;;;;5112494;27;20111;-68
2022/08/27 11:57:49;;;;;;;4.90;0.40;;;26.40;97.10;;;;;;5099975;27;20472;-67
2022/08/27 12:00:26;;;;;;;4.47;0.40;;;26.70;95.20;;;;;;5112717;27;20034;-66
2022/08/27 12:03:07;;;;;;;5.22;0.30;;;26.80;91.60;;;;;;5113274;27;20034;-68
2022/08/27 12:05:48;;;;;;;5.68;0.40;;;26.40;91.60;;;;;;5084490;27;20044;-69
2022/08/27 12:08:30;;;;;;;3.03;0.40;;;26.00;94.70;;;;;;5083240;27;20371;-67
2022/08/27 12:11:02;;;;;;;7.10;0.57;;;26.20;92.90;;;;;;5112925;27;20076;-68
2022/08/27 12:13:52;;;;;;;3.15;0.30;;;25.90;93.00;;;;;;5112405;27;20091;-68
2022/08/27 12:16:31;;;;;;;3.78;0.30;;;25.70;93.20;;;;;;5112411;27;20462;-68
2022/08/27 12:19:26;;;;;;;4.03;0.30;;;25.50;93.00;;;;;;5113011;27;20371;-67
2022/08/27 12:22:24;;;;;;;4.10;0.30;;;26.00;93.60;;;;;;5095654;27;20031;-68
2022/08/27 12:24:57;;;;;;;4.43;0.40;;;26.30;91.60;;;;;;5110064;27;20050;-68
2022/08/27 12:27:28;;;;;;;6.05;0.40;;;26.80;92.30;;;;;;5095450;27;20080;-69
2022/08/27 12:29:58;;;;;;;5.32;0.50;;;26.80;90.70;;;;;;5112828;27;20043;-68
2022/08/27 12:32:33;;;;;;;6.03;0.40;;;26.70;87.00;;;;;;5095322;27;20215;-69
2022/08/27 12:35:33;;;;;;;5.40;0.40;;;27.10;86.70;;;;;;5113204;27;20035;-68
2022/08/27 12:38:35;;;;;;;5.78;0.47;;;26.70;89.20;;;;;;5082776;27;20050;-68
2022/08/27 12:41:07;;;;;;;6.70;0.30;;;26.00;91.60;;;;;;5111866;27;20564;-67
2022/08/27 12:43:36;;;;;;;;;;;25.70;93.30;;;;;;5093395;27;20062;-68
2022/08/27 12:46:15;;;;;;;3.42;0.38;;;25.00;95.10;;;;;;5112035;27;19962;-67
2022/08/27 12:48:43;;;;;;;5.43;0.50;;;25.10;95.50;;;;;;5113504;27;20312;-67
2022/08/27 12:51:20;;;;;;;4.70;0.60;;;25.60;95.20;;;;;;5096107;27;20285;-68
2022/08/27 12:53:58;;;;;;;5.93;0.30;;;25.90;93.60;;;;;;5114040;27;20089;-68
2022/08/27 12:56:45;;;;;;;5.05;0.40;;;25.50;95.40;;;;;;5113357;27;20035;-69
2022/08/27 12:59:26;;;;;;;5.20;0.30;;;25.40;95.00;;;;;;5114553;27;20051;-68
2022/08/27 13:02:16;;;;;;;4.28;0.40;;;25.00;94.90;;;;;;5071753;28;20046;-68
2022/08/27 13:04:42;;;;;;;5.40;0.60;;;24.80;97.90;;;;;;5093183;28;20047;-69
2022/08/27 13:07:08;;;;;;;4.38;0.40;;;24.90;98.40;;;;;;5076248;28;21152;-68
2022/08/27 13:09:36;;;;;;;5.25;0.40;;;24.70;96.10;;;;;;5075646;28;20099;-69
2022/08/27 13:12:13;;;;;;;3.90;0.45;;;24.30;95.90;;;;;;5093227;28;20426;-68
2022/08/27 13:14:40;;;;;;;7.18;0.40;;;24.30;98.00;;;;;;5093177;28;20168;-69